sensor_id;sensor_type;location;lat;lon;timestamp;pressure;altitude;pressure_sealevel;temperature
41593;BMP180;28026;48.562;14.440;2023-07-24T00:00:31;93477.00;;;28.10
41593;BMP180;28026;48.562;14.440;2023-07-24T00:03:02;93489.00;;;28.10
41593;BMP180;28026;48.562;14.440;2023-07-24T00:05:34;93483.00;;;28.10
41593;BMP180;28026;48.562;14.440;2023-07-24T00:08:05;93485.00;;;28.10
41593;BMP180;28026;48.562;14.440;2023-07-24T00:10:37;93478.00;;;28.10
41593;BMP180;28026;48.562;14.440;2023-07-24T00:13:08;93477.00;;;28.10
41593;BMP180;28026;48.562;14.440;2023-07-24T00:15:39;93480.00;;;28.10
41593;BMP180;28026;48.562;14.440;2023-07-24T00:18:10;93477.00;;;28.10
41593;BMP180;28026;48.562;14.440;2023-07-24T00:20:41;93470.00;;;28.10
41593;BMP180;28026;48.562;14.440;2023-07-24T00:23:12;93474.00;;;28.00
41593;BMP180;28026;48.562;14.440;2023-07-24T00:25:43;93469.00;;;28.00
41593;BMP180;28026;48.562;14.440;2023-07-24T00:28:14;93462.00;;;28.00
41593;BMP180;28026;48.562;14.440;2023-07-24T00:30:44;93453.00;;;27.90
41593;BMP180;28026;48.562;14.440;2023-07-24T00:33:15;93465.00;;;27.90
41593;BMP180;28026;48.562;14.440;2023-07-24T00:35:46;93465.00;;;27.90
41593;BMP180;28026;48.562;14.440;2023-07-24T00:38:17;93461.00;;;27.80
41593;BMP180;28026;48.562;14.440;2023-07-24T00:40:48;93458.00;;;27.80
41593;BMP180;28026;48.562;14.440;2023-07-24T00:43:18;93459.00;;;27.80
41593;BMP180;28026;48.562;14.440;2023-07-24T00:45:49;93454.00;;;27.80
41593;BMP180;28026;48.562;14.440;2023-07-24T00:48:21;93447.00;;;27.70
41593;BMP180;28026;48.562;14.440;2023-07-24T00:50:53;93447.00;;;27.70
41593;BMP180;28026;48.562;14.440;2023-07-24T00:53:25;93452.00;;;27.70
41593;BMP180;28026;48.562;14.440;2023-07-24T00:55:56;93447.00;;;27.70
41593;BMP180;28026;48.562;14.440;2023-07-24T00:58:28;93455.00;;;27.60
41593;BMP180;28026;48.562;14.440;2023-07-24T01:00:59;93451.00;;;27.60
41593;BMP180;28026;48.562;14.440;2023-07-24T01:03:35;93443.00;;;27.60
41593;BMP180;28026;48.562;14.440;2023-07-24T01:06:07;93441.00;;;27.60
41593;BMP180;28026;48.562;14.440;2023-07-24T01:08:37;93445.00;;;27.60
41593;BMP180;28026;48.562;14.440;2023-07-24T01:11:37;93434.00;;;27.60
41593;BMP180;28026;48.562;14.440;2023-07-24T01:14:29;93437.00;;;27.50
41593;BMP180;28026;48.562;14.440;2023-07-24T01:17:08;93435.00;;;27.50
41593;BMP180;28026;48.562;14.440;2023-07-24T01:19:49;93426.00;;;27.50
41593;BMP180;28026;48.562;14.440;2023-07-24T01:25:08;93414.00;;;27.40
41593;BMP180;28026;48.562;14.440;2023-07-24T01:27:48;93408.00;;;27.40
41593;BMP180;28026;48.562;14.440;2023-07-24T01:30:21;93410.00;;;27.30
41593;BMP180;28026;48.562;14.440;2023-07-24T01:32:52;93408.00;;;27.30
41593;BMP180;28026;48.562;14.440;2023-07-24T01:35:23;93395.00;;;27.30
41593;BMP180;28026;48.562;14.440;2023-07-24T01:37:57;93389.00;;;27.30
41593;BMP180;28026;48.562;14.440;2023-07-24T01:40:29;93394.00;;;27.30
41593;BMP180;28026;48.562;14.440;2023-07-24T01:43:01;93393.00;;;27.30
41593;BMP180;28026;48.562;14.440;2023-07-24T01:45:32;93385.00;;;27.30
41593;BMP180;28026;48.562;14.440;2023-07-24T01:48:04;93380.00;;;27.30
41593;BMP180;28026;48.562;14.440;2023-07-24T01:50:36;93387.00;;;27.20
41593;BMP180;28026;48.562;14.440;2023-07-24T01:53:07;93388.00;;;27.20
41593;BMP180;28026;48.562;14.440;2023-07-24T01:55:38;93383.00;;;27.20
41593;BMP180;28026;48.562;14.440;2023-07-24T01:58:09;93376.00;;;27.20
41593;BMP180;28026;48.562;14.440;2023-07-24T02:00:40;93381.00;;;27.20
41593;BMP180;28026;48.562;14.440;2023-07-24T02:03:11;93378.00;;;27.20
41593;BMP180;28026;48.562;14.440;2023-07-24T02:05:41;93377.00;;;27.20
41593;BMP180;28026;48.562;14.440;2023-07-24T02:08:12;93373.00;;;27.20
41593;BMP180;28026;48.562;14.440;2023-07-24T02:10:43;93379.00;;;27.20
41593;BMP180;28026;48.562;14.440;2023-07-24T02:13:14;93376.00;;;27.20
41593;BMP180;28026;48.562;14.440;2023-07-24T02:15:45;93374.00;;;27.20
41593;BMP180;28026;48.562;14.440;2023-07-24T02:18:16;93370.00;;;27.20
41593;BMP180;28026;48.562;14.440;2023-07-24T02:20:51;93367.00;;;27.20
41593;BMP180;28026;48.562;14.440;2023-07-24T02:23:22;93374.00;;;27.20
41593;BMP180;28026;48.562;14.440;2023-07-24T02:25:52;93359.00;;;27.20
41593;BMP180;28026;48.562;14.440;2023-07-24T02:28:23;93361.00;;;27.20
41593;BMP180;28026;48.562;14.440;2023-07-24T02:30:54;93370.00;;;27.30
41593;BMP180;28026;48.562;14.440;2023-07-24T02:33:29;93368.00;;;27.30
41593;BMP180;28026;48.562;14.440;2023-07-24T02:36:01;93355.00;;;27.30
41593;BMP180;28026;48.562;14.440;2023-07-24T02:38:32;93368.00;;;27.30
41593;BMP180;28026;48.562;14.440;2023-07-24T02:41:03;93368.00;;;27.30
41593;BMP180;28026;48.562;14.440;2023-07-24T02:43:34;93362.00;;;27.30
41593;BMP180;28026;48.562;14.440;2023-07-24T02:46:04;93356.00;;;27.30
41593;BMP180;28026;48.562;14.440;2023-07-24T02:48:35;93351.00;;;27.20
41593;BMP180;28026;48.562;14.440;2023-07-24T02:51:06;93343.00;;;27.20
41593;BMP180;28026;48.562;14.440;2023-07-24T02:53:37;93344.00;;;27.20
41593;BMP180;28026;48.562;14.440;2023-07-24T02:56:08;93346.00;;;27.20
41593;BMP180;28026;48.562;14.440;2023-07-24T02:58:39;93347.00;;;27.20
41593;BMP180;28026;48.562;14.440;2023-07-24T03:01:09;93343.00;;;27.20
41593;BMP180;28026;48.562;14.440;2023-07-24T03:03:42;93337.00;;;27.20
41593;BMP180;28026;48.562;14.440;2023-07-24T03:06:13;93342.00;;;27.20
41593;BMP180;28026;48.562;14.440;2023-07-24T03:08:44;93340.00;;;27.20
41593;BMP180;28026;48.562;14.440;2023-07-24T03:11:15;93340.00;;;27.20
41593;BMP180;28026;48.562;14.440;2023-07-24T03:13:45;93341.00;;;27.20
41593;BMP180;28026;48.562;14.440;2023-07-24T03:16:16;93338.00;;;27.20
41593;BMP180;28026;48.562;14.440;2023-07-24T03:18:49;93341.00;;;27.10
41593;BMP180;28026;48.562;14.440;2023-07-24T03:21:21;93343.00;;;27.10
41593;BMP180;28026;48.562;14.440;2023-07-24T03:23:52;93341.00;;;27.10
41593;BMP180;28026;48.562;14.440;2023-07-24T03:26:23;93341.00;;;27.10
41593;BMP180;28026;48.562;14.440;2023-07-24T03:28:54;93335.00;;;27.10
41593;BMP180;28026;48.562;14.440;2023-07-24T03:31:24;93341.00;;;27.10
41593;BMP180;28026;48.562;14.440;2023-07-24T03:33:55;93335.00;;;27.20
41593;BMP180;28026;48.562;14.440;2023-07-24T03:36:26;93329.00;;;27.10
41593;BMP180;28026;48.562;14.440;2023-07-24T03:38:57;93332.00;;;27.10
41593;BMP180;28026;48.562;14.440;2023-07-24T03:41:28;93333.00;;;27.20
41593;BMP180;28026;48.562;14.440;2023-07-24T03:43:59;93336.00;;;27.20
41593;BMP180;28026;48.562;14.440;2023-07-24T03:46:32;93342.00;;;27.20
41593;BMP180;28026;48.562;14.440;2023-07-24T03:49:03;93349.00;;;27.20
41593;BMP180;28026;48.562;14.440;2023-07-24T03:51:34;93351.00;;;27.10
41593;BMP180;28026;48.562;14.440;2023-07-24T03:54:05;93340.00;;;27.10
41593;BMP180;28026;48.562;14.440;2023-07-24T03:56:36;93343.00;;;27.10
41593;BMP180;28026;48.562;14.440;2023-07-24T03:59:07;93336.00;;;27.10
41593;BMP180;28026;48.562;14.440;2023-07-24T04:01:38;93337.00;;;27.10
41593;BMP180;28026;48.562;14.440;2023-07-24T04:04:09;93325.00;;;27.20
41593;BMP180;28026;48.562;14.440;2023-07-24T04:06:40;93329.00;;;27.20
41593;BMP180;28026;48.562;14.440;2023-07-24T04:09:10;93331.00;;;27.20
41593;BMP180;28026;48.562;14.440;2023-07-24T04:11:45;93329.00;;;27.20
41593;BMP180;28026;48.562;14.440;2023-07-24T04:14:16;93335.00;;;27.20
41593;BMP180;28026;48.562;14.440;2023-07-24T04:16:46;93341.00;;;27.20
41593;BMP180;28026;48.562;14.440;2023-07-24T04:19:17;93345.00;;;27.30
41593;BMP180;28026;48.562;14.440;2023-07-24T04:21:48;93344.00;;;27.30
41593;BMP180;28026;48.562;14.440;2023-07-24T04:24:19;93347.00;;;27.30
41593;BMP180;28026;48.562;14.440;2023-07-24T04:26:50;93343.00;;;27.40
41593;BMP180;28026;48.562;14.440;2023-07-24T04:29:21;93346.00;;;27.50
41593;BMP180;28026;48.562;14.440;2023-07-24T04:31:54;93351.00;;;27.60
41593;BMP180;28026;48.562;14.440;2023-07-24T04:34:25;93357.00;;;27.60
41593;BMP180;28026;48.562;14.440;2023-07-24T04:36:55;93356.00;;;27.70
41593;BMP180;28026;48.562;14.440;2023-07-24T04:39:26;93356.00;;;27.80
41593;BMP180;28026;48.562;14.440;2023-07-24T04:41:57;93354.00;;;27.80
41593;BMP180;28026;48.562;14.440;2023-07-24T04:44:28;93350.00;;;27.90
41593;BMP180;28026;48.562;14.440;2023-07-24T04:46:59;93350.00;;;28.00
41593;BMP180;28026;48.562;14.440;2023-07-24T04:49:30;93353.00;;;28.00
41593;BMP180;28026;48.562;14.440;2023-07-24T04:52:03;93344.00;;;28.00
41593;BMP180;28026;48.562;14.440;2023-07-24T04:54:34;93337.00;;;28.00
41593;BMP180;28026;48.562;14.440;2023-07-24T04:57:05;93343.00;;;28.00
41593;BMP180;28026;48.562;14.440;2023-07-24T04:59:36;93343.00;;;28.00
41593;BMP180;28026;48.562;14.440;2023-07-24T05:02:07;93355.00;;;28.00
41593;BMP180;28026;48.562;14.440;2023-07-24T05:04:38;93345.00;;;28.00
41593;BMP180;28026;48.562;14.440;2023-07-24T05:07:09;93351.00;;;28.00
41593;BMP180;28026;48.562;14.440;2023-07-24T05:09:40;93350.00;;;27.90
41593;BMP180;28026;48.562;14.440;2023-07-24T05:12:10;93345.00;;;27.90
41593;BMP180;28026;48.562;14.440;2023-07-24T05:14:41;93345.00;;;27.90
41593;BMP180;28026;48.562;14.440;2023-07-24T05:17:12;93346.00;;;27.90
41593;BMP180;28026;48.562;14.440;2023-07-24T05:19:43;93331.00;;;27.90
41593;BMP180;28026;48.562;14.440;2023-07-24T05:22:14;93330.00;;;27.90
41593;BMP180;28026;48.562;14.440;2023-07-24T05:24:45;93330.00;;;27.90
41593;BMP180;28026;48.562;14.440;2023-07-24T05:27:16;93328.00;;;27.90
41593;BMP180;28026;48.562;14.440;2023-07-24T05:29:47;93331.00;;;27.90
41593;BMP180;28026;48.562;14.440;2023-07-24T05:32:18;93322.00;;;27.90
41593;BMP180;28026;48.562;14.440;2023-07-24T05:34:49;93326.00;;;27.90
41593;BMP180;28026;48.562;14.440;2023-07-24T05:37:19;93331.00;;;27.90
41593;BMP180;28026;48.562;14.440;2023-07-24T05:39:50;93330.00;;;27.80
41593;BMP180;28026;48.562;14.440;2023-07-24T05:42:21;93331.00;;;27.80
41593;BMP180;28026;48.562;14.440;2023-07-24T05:44:52;93336.00;;;27.90
41593;BMP180;28026;48.562;14.440;2023-07-24T05:47:23;93343.00;;;27.90
41593;BMP180;28026;48.562;14.440;2023-07-24T05:49:54;93352.00;;;27.90
41593;BMP180;28026;48.562;14.440;2023-07-24T05:52:25;93347.00;;;27.80
41593;BMP180;28026;48.562;14.440;2023-07-24T05:54:55;93341.00;;;27.90
41593;BMP180;28026;48.562;14.440;2023-07-24T05:57:26;93335.00;;;28.00
41593;BMP180;28026;48.562;14.440;2023-07-24T05:59:57;93343.00;;;28.10
41593;BMP180;28026;48.562;14.440;2023-07-24T06:02:28;93337.00;;;28.20
41593;BMP180;28026;48.562;14.440;2023-07-24T06:04:59;93345.00;;;28.20
41593;BMP180;28026;48.562;14.440;2023-07-24T06:07:30;93343.00;;;28.20
41593;BMP180;28026;48.562;14.440;2023-07-24T06:10:00;93350.00;;;28.40
41593;BMP180;28026;48.562;14.440;2023-07-24T06:12:31;93345.00;;;28.30
41593;BMP180;28026;48.562;14.440;2023-07-24T06:15:02;93343.00;;;28.30
41593;BMP180;28026;48.562;14.440;2023-07-24T06:17:34;93349.00;;;28.30
41593;BMP180;28026;48.562;14.440;2023-07-24T06:20:06;93354.00;;;28.30
41593;BMP180;28026;48.562;14.440;2023-07-24T06:22:37;93358.00;;;28.40
41593;BMP180;28026;48.562;14.440;2023-07-24T06:25:08;93366.00;;;28.40
41593;BMP180;28026;48.562;14.440;2023-07-24T06:27:39;93368.00;;;28.30
41593;BMP180;28026;48.562;14.440;2023-07-24T06:30:10;93368.00;;;28.30
41593;BMP180;28026;48.562;14.440;2023-07-24T06:32:41;93359.00;;;28.20
41593;BMP180;28026;48.562;14.440;2023-07-24T06:35:12;93352.00;;;28.20
41593;BMP180;28026;48.562;14.440;2023-07-24T06:37:43;93364.00;;;28.20
41593;BMP180;28026;48.562;14.440;2023-07-24T06:40:14;93372.00;;;28.20
41593;BMP180;28026;48.562;14.440;2023-07-24T06:42:45;93358.00;;;28.10
41593;BMP180;28026;48.562;14.440;2023-07-24T06:45:16;93359.00;;;28.00
41593;BMP180;28026;48.562;14.440;2023-07-24T06:47:47;93362.00;;;28.00
41593;BMP180;28026;48.562;14.440;2023-07-24T06:50:18;93364.00;;;27.90
41593;BMP180;28026;48.562;14.440;2023-07-24T06:52:49;93353.00;;;27.90
41593;BMP180;28026;48.562;14.440;2023-07-24T06:55:21;93346.00;;;27.90
41593;BMP180;28026;48.562;14.440;2023-07-24T06:57:52;93335.00;;;27.90
41593;BMP180;28026;48.562;14.440;2023-07-24T07:00:23;93317.00;;;28.00
41593;BMP180;28026;48.562;14.440;2023-07-24T07:02:54;93312.00;;;28.10
41593;BMP180;28026;48.562;14.440;2023-07-24T07:05:24;93308.00;;;28.20
41593;BMP180;28026;48.562;14.440;2023-07-24T07:07:55;93310.00;;;28.30
41593;BMP180;28026;48.562;14.440;2023-07-24T07:10:26;93314.00;;;28.40
41593;BMP180;28026;48.562;14.440;2023-07-24T07:12:57;93306.00;;;28.70
41593;BMP180;28026;48.562;14.440;2023-07-24T07:15:28;93300.00;;;28.90
41593;BMP180;28026;48.562;14.440;2023-07-24T07:17:59;93294.00;;;29.10
41593;BMP180;28026;48.562;14.440;2023-07-24T07:20:30;93288.00;;;29.20
41593;BMP180;28026;48.562;14.440;2023-07-24T07:23:01;93280.00;;;29.40
41593;BMP180;28026;48.562;14.440;2023-07-24T07:25:32;93293.00;;;29.80
41593;BMP180;28026;48.562;14.440;2023-07-24T07:28:03;93293.00;;;30.30
41593;BMP180;28026;48.562;14.440;2023-07-24T07:30:34;93296.00;;;30.60
41593;BMP180;28026;48.562;14.440;2023-07-24T07:33:05;93287.00;;;30.80
41593;BMP180;28026;48.562;14.440;2023-07-24T07:35:37;93289.00;;;30.80
41593;BMP180;28026;48.562;14.440;2023-07-24T07:38:07;93285.00;;;30.80
41593;BMP180;28026;48.562;14.440;2023-07-24T07:40:38;93279.00;;;30.80
41593;BMP180;28026;48.562;14.440;2023-07-24T07:43:12;93269.00;;;30.70
41593;BMP180;28026;48.562;14.440;2023-07-24T07:45:43;93284.00;;;30.70
41593;BMP180;28026;48.562;14.440;2023-07-24T07:48:14;93282.00;;;30.80
41593;BMP180;28026;48.562;14.440;2023-07-24T07:50:51;93264.00;;;30.80
41593;BMP180;28026;48.562;14.440;2023-07-24T07:53:22;93267.00;;;30.80
41593;BMP180;28026;48.562;14.440;2023-07-24T07:55:59;93261.00;;;30.80
41593;BMP180;28026;48.562;14.440;2023-07-24T07:58:33;93268.00;;;31.00
41593;BMP180;28026;48.562;14.440;2023-07-24T08:01:07;93271.00;;;31.10
41593;BMP180;28026;48.562;14.440;2023-07-24T08:03:38;93273.00;;;31.20
41593;BMP180;28026;48.562;14.440;2023-07-24T08:06:09;93263.00;;;31.30
41593;BMP180;28026;48.562;14.440;2023-07-24T08:08:40;93249.00;;;31.30
41593;BMP180;28026;48.562;14.440;2023-07-24T08:11:11;93244.00;;;31.20
41593;BMP180;28026;48.562;14.440;2023-07-24T08:13:42;93241.00;;;31.40
41593;BMP180;28026;48.562;14.440;2023-07-24T08:16:14;93230.00;;;31.70
41593;BMP180;28026;48.562;14.440;2023-07-24T08:18:51;93220.00;;;32.00
41593;BMP180;28026;48.562;14.440;2023-07-24T08:21:22;93221.00;;;32.20
41593;BMP180;28026;48.562;14.440;2023-07-24T08:23:53;93206.00;;;32.50
41593;BMP180;28026;48.562;14.440;2023-07-24T08:26:23;93199.00;;;32.60
41593;BMP180;28026;48.562;14.440;2023-07-24T08:28:57;93201.00;;;32.80
41593;BMP180;28026;48.562;14.440;2023-07-24T08:31:30;93204.00;;;32.90
41593;BMP180;28026;48.562;14.440;2023-07-24T08:34:01;93204.00;;;33.10
41593;BMP180;28026;48.562;14.440;2023-07-24T08:36:31;93205.00;;;33.30
41593;BMP180;28026;48.562;14.440;2023-07-24T08:39:03;93200.00;;;33.50
41593;BMP180;28026;48.562;14.440;2023-07-24T08:41:34;93207.00;;;33.70
41593;BMP180;28026;48.562;14.440;2023-07-24T08:44:08;93199.00;;;33.90
41593;BMP180;28026;48.562;14.440;2023-07-24T08:46:40;93203.00;;;34.00
41593;BMP180;28026;48.562;14.440;2023-07-24T08:49:12;93210.00;;;34.30
41593;BMP180;28026;48.562;14.440;2023-07-24T08:51:44;93219.00;;;34.30
41593;BMP180;28026;48.562;14.440;2023-07-24T08:54:16;93223.00;;;34.20
41593;BMP180;28026;48.562;14.440;2023-07-24T08:56:49;93219.00;;;34.20
41593;BMP180;28026;48.562;14.440;2023-07-24T08:59:22;93199.00;;;34.00
41593;BMP180;28026;48.562;14.440;2023-07-24T09:01:53;93202.00;;;34.10
41593;BMP180;28026;48.562;14.440;2023-07-24T09:04:25;93205.00;;;34.20
41593;BMP180;28026;48.562;14.440;2023-07-24T09:06:57;93196.00;;;34.30
41593;BMP180;28026;48.562;14.440;2023-07-24T09:09:32;93191.00;;;34.40
41593;BMP180;28026;48.562;14.440;2023-07-24T09:12:03;93186.00;;;34.40
41593;BMP180;28026;48.562;14.440;2023-07-24T09:14:34;93178.00;;;34.50
41593;BMP180;28026;48.562;14.440;2023-07-24T09:17:08;93178.00;;;34.70
41593;BMP180;28026;48.562;14.440;2023-07-24T09:19:40;93183.00;;;34.80
41593;BMP180;28026;48.562;14.440;2023-07-24T09:22:15;93182.00;;;35.10
41593;BMP180;28026;48.562;14.440;2023-07-24T09:24:57;93182.00;;;35.30
41593;BMP180;28026;48.562;14.440;2023-07-24T09:27:29;93186.00;;;35.50
41593;BMP180;28026;48.562;14.440;2023-07-24T09:30:00;93193.00;;;35.60
41593;BMP180;28026;48.562;14.440;2023-07-24T09:32:31;93182.00;;;35.70
41593;BMP180;28026;48.562;14.440;2023-07-24T09:35:03;93182.00;;;35.90
41593;BMP180;28026;48.562;14.440;2023-07-24T09:37:34;93182.00;;;36.00
41593;BMP180;28026;48.562;14.440;2023-07-24T09:40:06;93171.00;;;36.20
41593;BMP180;28026;48.562;14.440;2023-07-24T09:42:38;93173.00;;;36.40
41593;BMP180;28026;48.562;14.440;2023-07-24T09:45:10;93181.00;;;36.30
41593;BMP180;28026;48.562;14.440;2023-07-24T09:47:41;93176.00;;;36.40
41593;BMP180;28026;48.562;14.440;2023-07-24T09:50:13;93173.00;;;36.40
41593;BMP180;28026;48.562;14.440;2023-07-24T09:52:47;93167.00;;;36.60
41593;BMP180;28026;48.562;14.440;2023-07-24T09:55:25;93168.00;;;36.70
41593;BMP180;28026;48.562;14.440;2023-07-24T09:58:06;93160.00;;;36.80
41593;BMP180;28026;48.562;14.440;2023-07-24T10:00:38;93158.00;;;37.00
41593;BMP180;28026;48.562;14.440;2023-07-24T10:03:09;93164.00;;;37.00
41593;BMP180;28026;48.562;14.440;2023-07-24T10:05:44;93170.00;;;37.20
41593;BMP180;28026;48.562;14.440;2023-07-24T10:08:17;93166.00;;;37.40
41593;BMP180;28026;48.562;14.440;2023-07-24T10:10:49;93152.00;;;37.40
41593;BMP180;28026;48.562;14.440;2023-07-24T10:13:23;93139.00;;;37.50
41593;BMP180;28026;48.562;14.440;2023-07-24T10:15:56;93135.00;;;37.40
41593;BMP180;28026;48.562;14.440;2023-07-24T10:18:29;93135.00;;;37.40
41593;BMP180;28026;48.562;14.440;2023-07-24T10:21:06;93122.00;;;37.50
41593;BMP180;28026;48.562;14.440;2023-07-24T10:23:45;93120.00;;;37.60
41593;BMP180;28026;48.562;14.440;2023-07-24T10:26:26;93116.00;;;37.50
41593;BMP180;28026;48.562;14.440;2023-07-24T10:28:58;93126.00;;;37.60
41593;BMP180;28026;48.562;14.440;2023-07-24T10:31:28;93112.00;;;37.60
41593;BMP180;28026;48.562;14.440;2023-07-24T10:34:05;93115.00;;;37.60
41593;BMP180;28026;48.562;14.440;2023-07-24T10:36:37;93107.00;;;37.60
41593;BMP180;28026;48.562;14.440;2023-07-24T10:39:17;93113.00;;;37.70
41593;BMP180;28026;48.562;14.440;2023-07-24T10:41:51;93127.00;;;37.90
41593;BMP180;28026;48.562;14.440;2023-07-24T10:44:31;93104.00;;;37.90
41593;BMP180;28026;48.562;14.440;2023-07-24T10:47:03;93127.00;;;37.70
41593;BMP180;28026;48.562;14.440;2023-07-24T10:49:34;93120.00;;;37.60
41593;BMP180;28026;48.562;14.440;2023-07-24T10:52:06;93117.00;;;37.50
41593;BMP180;28026;48.562;14.440;2023-07-24T10:54:37;93124.00;;;37.30
41593;BMP180;28026;48.562;14.440;2023-07-24T10:57:08;93130.00;;;37.10
41593;BMP180;28026;48.562;14.440;2023-07-24T10:59:40;93131.00;;;37.00
41593;BMP180;28026;48.562;14.440;2023-07-24T11:02:11;93122.00;;;36.80
41593;BMP180;28026;48.562;14.440;2023-07-24T11:04:43;93129.00;;;36.50
41593;BMP180;28026;48.562;14.440;2023-07-24T11:07:14;93129.00;;;36.30
41593;BMP180;28026;48.562;14.440;2023-07-24T11:09:45;93128.00;;;36.00
41593;BMP180;28026;48.562;14.440;2023-07-24T11:12:16;93135.00;;;35.80
41593;BMP180;28026;48.562;14.440;2023-07-24T11:14:52;93126.00;;;35.60
41593;BMP180;28026;48.562;14.440;2023-07-24T11:17:36;93129.00;;;35.60
41593;BMP180;28026;48.562;14.440;2023-07-24T11:20:15;93130.00;;;35.60
41593;BMP180;28026;48.562;14.440;2023-07-24T11:22:46;93140.00;;;35.40
41593;BMP180;28026;48.562;14.440;2023-07-24T11:25:17;93133.00;;;35.40
41593;BMP180;28026;48.562;14.440;2023-07-24T11:27:48;93134.00;;;35.30
41593;BMP180;28026;48.562;14.440;2023-07-24T11:30:20;93123.00;;;35.40
41593;BMP180;28026;48.562;14.440;2023-07-24T11:32:52;93131.00;;;35.40
41593;BMP180;28026;48.562;14.440;2023-07-24T11:35:25;93134.00;;;35.30
41593;BMP180;28026;48.562;14.440;2023-07-24T11:37:57;93132.00;;;35.20
41593;BMP180;28026;48.562;14.440;2023-07-24T11:40:40;93127.00;;;35.10
41593;BMP180;28026;48.562;14.440;2023-07-24T11:43:21;93127.00;;;35.00
41593;BMP180;28026;48.562;14.440;2023-07-24T11:45:54;93132.00;;;34.90
41593;BMP180;28026;48.562;14.440;2023-07-24T11:48:25;93128.00;;;34.90
41593;BMP180;28026;48.562;14.440;2023-07-24T11:50:57;93117.00;;;35.00
41593;BMP180;28026;48.562;14.440;2023-07-24T11:53:30;93107.00;;;35.00
41593;BMP180;28026;48.562;14.440;2023-07-24T11:56:15;93105.00;;;35.10
41593;BMP180;28026;48.562;14.440;2023-07-24T11:58:46;93089.00;;;35.30
41593;BMP180;28026;48.562;14.440;2023-07-24T12:01:17;93095.00;;;35.60
41593;BMP180;28026;48.562;14.440;2023-07-24T12:03:48;93084.00;;;36.00
41593;BMP180;28026;48.562;14.440;2023-07-24T12:06:21;93084.00;;;36.20
41593;BMP180;28026;48.562;14.440;2023-07-24T12:09:05;93086.00;;;36.20
41593;BMP180;28026;48.562;14.440;2023-07-24T12:11:43;93093.00;;;36.10
41593;BMP180;28026;48.562;14.440;2023-07-24T12:14:15;93089.00;;;35.90
41593;BMP180;28026;48.562;14.440;2023-07-24T12:16:45;93084.00;;;35.90
41593;BMP180;28026;48.562;14.440;2023-07-24T12:19:16;93085.00;;;36.00
41593;BMP180;28026;48.562;14.440;2023-07-24T12:21:47;93086.00;;;36.20
41593;BMP180;28026;48.562;14.440;2023-07-24T12:24:18;93090.00;;;36.20
41593;BMP180;28026;48.562;14.440;2023-07-24T12:26:49;93080.00;;;36.20
41593;BMP180;28026;48.562;14.440;2023-07-24T12:29:19;93078.00;;;36.10
41593;BMP180;28026;48.562;14.440;2023-07-24T12:31:50;93069.00;;;36.20
41593;BMP180;28026;48.562;14.440;2023-07-24T12:34:21;93053.00;;;36.50
41593;BMP180;28026;48.562;14.440;2023-07-24T12:36:52;93060.00;;;36.50
41593;BMP180;28026;48.562;14.440;2023-07-24T12:39:24;93062.00;;;36.30
41593;BMP180;28026;48.562;14.440;2023-07-24T12:41:55;93057.00;;;36.10
41593;BMP180;28026;48.562;14.440;2023-07-24T12:44:25;93045.00;;;36.00
41593;BMP180;28026;48.562;14.440;2023-07-24T12:46:56;93034.00;;;36.10
41593;BMP180;28026;48.562;14.440;2023-07-24T12:49:27;93031.00;;;36.20
41593;BMP180;28026;48.562;14.440;2023-07-24T12:51:58;93038.00;;;36.30
41593;BMP180;28026;48.562;14.440;2023-07-24T12:54:29;93045.00;;;36.40
41593;BMP180;28026;48.562;14.440;2023-07-24T12:57:01;93048.00;;;36.50
41593;BMP180;28026;48.562;14.440;2023-07-24T12:59:32;93046.00;;;36.60
41593;BMP180;28026;48.562;14.440;2023-07-24T13:02:03;93039.00;;;36.50
41593;BMP180;28026;48.562;14.440;2023-07-24T13:04:34;93028.00;;;36.50
41593;BMP180;28026;48.562;14.440;2023-07-24T13:07:05;93023.00;;;36.50
41593;BMP180;28026;48.562;14.440;2023-07-24T13:09:36;93020.00;;;36.40
41593;BMP180;28026;48.562;14.440;2023-07-24T13:12:08;93019.00;;;36.30
41593;BMP180;28026;48.562;14.440;2023-07-24T13:14:39;93020.00;;;36.30
41593;BMP180;28026;48.562;14.440;2023-07-24T13:17:10;93012.00;;;36.50
41593;BMP180;28026;48.562;14.440;2023-07-24T13:19:41;93002.00;;;36.80
41593;BMP180;28026;48.562;14.440;2023-07-24T13:22:12;93001.00;;;37.20
41593;BMP180;28026;48.562;14.440;2023-07-24T13:24:43;92991.00;;;37.30
41593;BMP180;28026;48.562;14.440;2023-07-24T13:27:13;92984.00;;;37.40
41593;BMP180;28026;48.562;14.440;2023-07-24T13:29:44;92987.00;;;37.70
41593;BMP180;28026;48.562;14.440;2023-07-24T13:32:15;92979.00;;;37.80
41593;BMP180;28026;48.562;14.440;2023-07-24T13:34:46;92972.00;;;37.90
41593;BMP180;28026;48.562;14.440;2023-07-24T13:37:18;92958.00;;;38.10
41593;BMP180;28026;48.562;14.440;2023-07-24T13:39:49;92967.00;;;38.30
41593;BMP180;28026;48.562;14.440;2023-07-24T13:42:19;92968.00;;;38.50
41593;BMP180;28026;48.562;14.440;2023-07-24T13:44:50;92972.00;;;38.50
41593;BMP180;28026;48.562;14.440;2023-07-24T13:47:22;92971.00;;;38.50
41593;BMP180;28026;48.562;14.440;2023-07-24T13:49:53;92975.00;;;38.60
41593;BMP180;28026;48.562;14.440;2023-07-24T13:52:24;92961.00;;;38.60
41593;BMP180;28026;48.562;14.440;2023-07-24T13:54:55;92955.00;;;38.70
41593;BMP180;28026;48.562;14.440;2023-07-24T13:57:26;92953.00;;;38.60
41593;BMP180;28026;48.562;14.440;2023-07-24T13:59:57;92958.00;;;38.40
41593;BMP180;28026;48.562;14.440;2023-07-24T14:02:28;92961.00;;;38.40
41593;BMP180;28026;48.562;14.440;2023-07-24T14:04:58;92957.00;;;38.10
41593;BMP180;28026;48.562;14.440;2023-07-24T14:07:29;92950.00;;;37.90
41593;BMP180;28026;48.562;14.440;2023-07-24T14:10:00;92946.00;;;37.80
41593;BMP180;28026;48.562;14.440;2023-07-24T14:12:31;92946.00;;;38.00
41593;BMP180;28026;48.562;14.440;2023-07-24T14:15:03;92951.00;;;38.10
41593;BMP180;28026;48.562;14.440;2023-07-24T14:17:34;92966.00;;;38.00
41593;BMP180;28026;48.562;14.440;2023-07-24T14:20:06;92973.00;;;37.70
41593;BMP180;28026;48.562;14.440;2023-07-24T14:22:37;92986.00;;;37.30
41593;BMP180;28026;48.562;14.440;2023-07-24T14:25:08;92981.00;;;37.00